createdAt,value
2023-01-02T00:00:59.495Z,100598.19
2023-01-02T00:03:26.507Z,100585.00
2023-01-02T00:05:54.541Z,100589.94
2023-01-02T00:08:21.188Z,100588.84
2023-01-02T00:10:47.891Z,100573.41
2023-01-02T00:13:14.894Z,100564.19
2023-01-02T00:15:41.533Z,100562.56
2023-01-02T00:18:08.284Z,100554.25
2023-01-02T00:20:34.967Z,100564.56
2023-01-02T00:23:01.614Z,100554.56
2023-01-02T00:25:28.367Z,100555.09
2023-01-02T00:27:56.185Z,100555.66
2023-01-02T00:30:23.005Z,100557.97
2023-01-02T00:32:49.637Z,100553.13
2023-01-02T00:35:16.388Z,100542.13
2023-01-02T00:37:42.996Z,100540.59
2023-01-02T00:40:13.945Z,100542.94
2023-01-02T00:42:41.464Z,100543.31
2023-01-02T00:45:09.910Z,100540.63
2023-01-02T00:47:37.147Z,100539.78
2023-01-02T00:50:04.750Z,100544.13
2023-01-02T00:52:31.578Z,100552.41
2023-01-02T00:54:58.206Z,100549.03
2023-01-02T00:57:24.872Z,100544.94
2023-01-02T00:59:51.475Z,100538.16
2023-01-02T01:02:18.232Z,100546.41
2023-01-02T01:04:44.993Z,100538.50
2023-01-02T01:07:11.608Z,100548.78
2023-01-02T01:09:38.211Z,100539.00
2023-01-02T01:12:05.356Z,100530.88
2023-01-02T01:14:32.254Z,100536.19
2023-01-02T01:16:59.856Z,100523.59
2023-01-02T01:19:34.208Z,100525.75
2023-01-02T01:22:00.867Z,100527.03
2023-01-02T01:24:27.946Z,100527.00
2023-01-02T01:26:54.619Z,100519.41
2023-01-02T01:29:21.376Z,100524.38
2023-01-02T01:31:48.049Z,100520.59
2023-01-02T01:34:14.833Z,100526.72
2023-01-02T01:36:41.568Z,100529.16
2023-01-02T01:39:08.262Z,100524.38
2023-01-02T01:41:34.986Z,100529.69
2023-01-02T01:44:01.739Z,100526.16
2023-01-02T01:46:46.454Z,100523.31
2023-01-02T01:49:27.648Z,100522.78
2023-01-02T01:52:03.636Z,100522.84
2023-01-02T01:54:35.199Z,100525.19
2023-01-02T01:57:12.347Z,100521.16
2023-01-02T01:59:39.568Z,100512.44
2023-01-02T02:02:06.952Z,100516.66
2023-01-02T02:04:34.295Z,100502.44
2023-01-02T02:07:01.812Z,100509.72
2023-01-02T02:09:35.596Z,100510.81
2023-01-02T02:12:04.465Z,100503.81
2023-01-02T02:14:31.139Z,100502.16
2023-01-02T02:17:36.417Z,100502.66
2023-01-02T02:20:27.180Z,100495.66
2023-01-02T02:23:18.975Z,100488.91
2023-01-02T02:25:59.947Z,100486.94
2023-01-02T02:29:04.528Z,100481.00
2023-01-02T02:31:59.485Z,100486.19
2023-01-02T02:34:40.213Z,100489.91
2023-01-02T02:37:34.022Z,100496.22
2023-01-02T02:40:10.050Z,100493.44
2023-01-02T02:42:52.666Z,100493.50
2023-01-02T02:45:38.281Z,100489.06
2023-01-02T02:48:13.805Z,100493.16
2023-01-02T02:51:00.925Z,100489.44
2023-01-02T02:53:35.968Z,100481.31
2023-01-02T02:56:07.944Z,100485.13
2023-01-02T02:58:36.278Z,100487.00
2023-01-02T03:01:06.002Z,100484.69
2023-01-02T03:03:33.254Z,100472.22
2023-01-02T03:06:18.149Z,100477.69
2023-01-02T03:09:22.566Z,100465.75
2023-01-02T03:12:10.363Z,100457.66
2023-01-02T03:14:51.474Z,100463.94
2023-01-02T03:17:22.998Z,100462.78
2023-01-02T03:19:57.450Z,100465.91
2023-01-02T03:22:31.592Z,100458.81
2023-01-02T03:24:59.219Z,100462.59
2023-01-02T03:27:30.104Z,100480.44
2023-01-02T03:30:10.977Z,100474.78
2023-01-02T03:32:43.673Z,100472.63
2023-01-02T03:35:19.691Z,100479.09
2023-01-02T03:37:51.414Z,100482.84
2023-01-02T03:40:24.991Z,100480.06
2023-01-02T03:43:21.450Z,100464.47
2023-01-02T03:46:01.663Z,100488.25
2023-01-02T03:48:34.888Z,100483.44
2023-01-02T03:51:03.745Z,100486.38
2023-01-02T03:53:33.760Z,100464.75
2023-01-02T03:56:11.202Z,100483.31
2023-01-02T03:58:43.783Z,100475.19
2023-01-02T04:01:20.677Z,100487.66
2023-01-02T04:03:52.872Z,100487.38
2023-01-02T04:06:24.949Z,100487.94
2023-01-02T04:09:00.394Z,100483.84
2023-01-02T04:11:30.459Z,100485.31
2023-01-02T04:14:03.254Z,100486.34
2023-01-02T04:16:34.546Z,100488.53
2023-01-02T04:19:21.473Z,100499.00
2023-01-02T04:21:50.002Z,100487.56
2023-01-02T04:24:27.099Z,100488.09
2023-01-02T04:27:09.772Z,100498.25
2023-01-02T04:29:36.467Z,100495.50
2023-01-02T04:32:30.923Z,100497.53
2023-01-02T04:34:59.224Z,100498.19
2023-01-02T04:37:31.683Z,100486.00
2023-01-02T04:40:04.077Z,100493.13
2023-01-02T04:42:35.651Z,100485.22
2023-01-02T04:45:03.260Z,100485.31
2023-01-02T04:47:30.151Z,100483.94
2023-01-02T04:49:56.798Z,100488.78
2023-01-02T04:52:23.462Z,100492.03
2023-01-02T04:54:50.140Z,100493.09
2023-01-02T04:57:16.839Z,100491.50
2023-01-02T04:59:43.470Z,100494.72
2023-01-02T05:02:10.247Z,100500.09
2023-01-02T05:04:37.095Z,100498.59
2023-01-02T05:07:04.506Z,100499.13
2023-01-02T05:09:31.134Z,100500.69
2023-01-02T05:11:57.864Z,100494.59
2023-01-02T05:14:24.562Z,100498.47
2023-01-02T05:16:51.241Z,100510.34
2023-01-02T05:19:17.919Z,100513.06
2023-01-02T05:22:03.406Z,100522.22
2023-01-02T05:24:30.073Z,100518.72
2023-01-02T05:26:56.697Z,100523.22
2023-01-02T05:29:23.537Z,100524.72
2023-01-02T05:31:50.686Z,100526.28
2023-01-02T05:34:17.541Z,100535.13
2023-01-02T05:36:44.383Z,100534.56
2023-01-02T05:39:12.510Z,100531.81
2023-01-02T05:41:40.069Z,100545.38
2023-01-02T05:44:08.674Z,100545.91
2023-01-02T05:46:36.495Z,100551.44
2023-01-02T05:49:10.666Z,100550.19
2023-01-02T05:51:37.560Z,100553.28
2023-01-02T05:54:05.059Z,100557.69
2023-01-02T05:56:32.089Z,100543.72
2023-01-02T05:58:58.705Z,100566.00
2023-01-02T06:01:28.006Z,100555.56
2023-01-02T06:03:57.960Z,100555.84
2023-01-02T06:06:29.521Z,100553.38
2023-01-02T06:08:56.326Z,100563.16
2023-01-02T06:11:22.953Z,100552.41
2023-01-02T06:13:49.548Z,100561.97
2023-01-02T06:16:16.320Z,100556.66
2023-01-02T06:18:43.038Z,100550.09
2023-01-02T06:21:15.398Z,100560.09
2023-01-02T06:23:42.868Z,100559.91
2023-01-02T06:26:13.800Z,100570.22
2023-01-02T06:28:40.846Z,100571.69
2023-01-02T06:31:18.863Z,100567.75
2023-01-02T06:33:46.019Z,100580.16
2023-01-02T06:36:18.315Z,100572.22
2023-01-02T06:38:45.800Z,100583.38
2023-01-02T06:41:12.903Z,100584.34
2023-01-02T06:43:45.824Z,100577.56
2023-01-02T06:46:19.522Z,100588.25
2023-01-02T06:48:46.981Z,100590.53
2023-01-02T06:51:16.524Z,100588.91
2023-01-02T06:53:44.467Z,100584.88
2023-01-02T06:56:12.540Z,100579.06
2023-01-02T06:58:39.720Z,100586.88
2023-01-02T07:01:09.139Z,100588.00
2023-01-02T07:03:36.556Z,100588.88
2023-01-02T07:06:10.552Z,100588.13
2023-01-02T07:08:37.565Z,100591.09
2023-01-02T07:11:19.207Z,100598.50
2023-01-02T07:13:47.843Z,100604.81
2023-01-02T07:16:16.260Z,100602.59
2023-01-02T07:18:43.516Z,100603.63
2023-01-02T07:21:12.049Z,100608.25
2023-01-02T07:23:38.824Z,100610.81
2023-01-02T07:26:06.955Z,100600.03
2023-01-02T07:28:34.868Z,100604.59
2023-01-02T07:31:05.554Z,100610.41
2023-01-02T07:33:33.268Z,100615.78
2023-01-02T07:36:04.993Z,100615.25
2023-01-02T07:38:31.825Z,100616.84
2023-01-02T07:40:58.607Z,100622.78
2023-01-02T07:43:25.689Z,100628.72
2023-01-02T07:45:52.428Z,100624.53
2023-01-02T07:48:19.195Z,100620.34
2023-01-02T07:50:46.415Z,100629.19
2023-01-02T07:53:13.131Z,100627.88
2023-01-02T07:55:39.919Z,100638.69
2023-01-02T07:58:07.173Z,100638.13
2023-01-02T08:00:33.803Z,100629.56
2023-01-02T08:03:00.987Z,100642.88
2023-01-02T08:05:27.843Z,100636.31
2023-01-02T08:07:54.484Z,100641.19
2023-01-02T08:10:21.169Z,100640.38
2023-01-02T08:12:47.812Z,100636.47
2023-01-02T08:15:14.568Z,100644.38
2023-01-02T08:17:41.549Z,100650.84
2023-01-02T08:20:09.364Z,100649.00
2023-01-02T08:22:36.242Z,100660.47
2023-01-02T08:25:03.856Z,100668.03
2023-01-02T08:27:30.704Z,100677.19
2023-01-02T08:29:57.385Z,100674.81
2023-01-02T08:32:24.126Z,100680.59
2023-01-02T08:34:50.820Z,100683.41
2023-01-02T08:37:17.667Z,100677.34
2023-01-02T08:39:44.309Z,100679.75
2023-01-02T08:42:11.175Z,100685.16
2023-01-02T08:44:38.241Z,100694.22
2023-01-02T08:47:05.685Z,100695.28
2023-01-02T08:49:32.474Z,100694.75
2023-01-02T08:51:59.219Z,100697.97
2023-01-02T08:54:26.261Z,100700.66
2023-01-02T08:56:53.160Z,100702.66
2023-01-02T08:59:20.039Z,100702.66
2023-01-02T09:01:46.887Z,100702.63
2023-01-02T09:04:13.930Z,100704.78
2023-01-02T09:06:42.011Z,100711.94
2023-01-02T09:09:12.557Z,100717.91
2023-01-02T09:11:44.788Z,100710.19
2023-01-02T09:14:11.506Z,100719.22
2023-01-02T09:16:38.190Z,100730.03
2023-01-02T09:19:05.090Z,100731.97
2023-01-02T09:21:32.084Z,100729.25
2023-01-02T09:23:59.377Z,100731.91
2023-01-02T09:26:26.459Z,100737.31
2023-01-02T09:28:53.589Z,100734.41
2023-01-02T09:31:20.723Z,100740.69
2023-01-02T09:33:48.188Z,100739.41
2023-01-02T09:36:24.582Z,100752.19
2023-01-02T09:38:53.218Z,100750.03
2023-01-02T09:41:25.269Z,100757.91
2023-01-02T09:44:33.438Z,100762.56
2023-01-02T09:47:11.064Z,100750.94
2023-01-02T09:49:45.484Z,100763.78
2023-01-02T09:52:18.567Z,100759.00
2023-01-02T09:54:45.210Z,100769.09
2023-01-02T09:57:32.231Z,100770.94
2023-01-02T10:00:04.823Z,100768.59
2023-01-02T10:02:45.198Z,100766.22
2023-01-02T10:05:38.413Z,100771.88
2023-01-02T10:08:31.422Z,100768.94
2023-01-02T10:11:09.799Z,100766.91
2023-01-02T10:16:49.741Z,100780.81
2023-01-02T10:19:40.803Z,100774.84
2023-01-02T10:22:12.718Z,100773.44
2023-01-02T10:24:45.859Z,100779.72
2023-01-02T10:27:18.399Z,100778.91
2023-01-02T10:30:02.973Z,100774.31
2023-01-02T10:32:32.771Z,100786.81
2023-01-02T10:35:14.706Z,100786.00
2023-01-02T10:37:41.396Z,100774.13
2023-01-02T10:40:08.566Z,100766.53
2023-01-02T10:42:35.199Z,100761.69
2023-01-02T10:45:02.833Z,100767.63
2023-01-02T10:47:37.647Z,100770.28
2023-01-02T10:50:14.992Z,100781.94
2023-01-02T10:52:52.971Z,100790.88
2023-01-02T10:55:36.887Z,100776.00
2023-01-02T10:58:06.238Z,100775.19
2023-01-02T11:00:35.556Z,100783.81
2023-01-02T11:03:23.698Z,100782.72
2023-01-02T11:05:53.553Z,100784.34
2023-01-02T11:08:34.192Z,100796.53
2023-01-02T11:11:03.463Z,100790.25
2023-01-02T11:13:48.959Z,100787.69
2023-01-02T11:16:21.339Z,100789.88
2023-01-02T11:18:56.545Z,100795.28
2023-01-02T11:21:29.953Z,100793.31
2023-01-02T11:24:05.558Z,100803.59
2023-01-02T11:26:34.355Z,100800.69
2023-01-02T11:29:09.280Z,100810.16
2023-01-02T11:31:43.365Z,100807.44
2023-01-02T11:34:19.340Z,100810.97
2023-01-02T11:37:00.288Z,100807.44
2023-01-02T11:39:26.908Z,100811.97
2023-01-02T11:42:27.302Z,100821.78
2023-01-02T11:45:06.271Z,100814.16
2023-01-02T11:47:38.055Z,100813.94
2023-01-02T11:50:05.225Z,100811.50
2023-01-02T11:53:00.022Z,100811.78
2023-01-02T11:55:35.692Z,100802.84
2023-01-02T11:58:37.553Z,100806.09
2023-01-02T12:01:17.282Z,100813.09
2023-01-02T12:03:44.390Z,100811.78
2023-01-02T12:06:23.902Z,100809.59
2023-01-02T12:08:56.693Z,100821.19
2023-01-02T12:11:45.180Z,100833.44
2023-01-02T12:14:18.324Z,100830.47
2023-01-02T12:17:14.507Z,100837.97
2023-01-02T12:19:49.536Z,100841.81
2023-01-02T12:22:25.015Z,100838.50
2023-01-02T12:25:08.384Z,100847.06
2023-01-02T12:27:58.407Z,100830.44
2023-01-02T12:30:25.304Z,100838.31
2023-01-02T12:33:17.651Z,100839.88
2023-01-02T12:36:05.583Z,100842.69
2023-01-02T12:39:37.176Z,100849.09
2023-01-02T12:42:16.056Z,100833.69
2023-01-02T12:44:55.076Z,100828.03
2023-01-02T12:47:48.884Z,100832.66
2023-01-02T12:50:27.071Z,100835.63
2023-01-02T12:53:13.767Z,100833.59
2023-01-02T12:55:49.439Z,100834.59
2023-01-02T12:58:48.356Z,100845.94
2023-01-02T13:01:53.611Z,100852.25
2023-01-02T13:04:23.622Z,100835.81
2023-01-02T13:06:56.369Z,100842.84
2023-01-02T13:09:37.793Z,100850.41
2023-01-02T13:12:10.160Z,100846.50
2023-01-02T13:14:49.060Z,100850.59
2023-01-02T13:17:38.557Z,100840.22
2023-01-02T13:20:12.833Z,100843.13
2023-01-02T13:22:47.753Z,100848.38
2023-01-02T13:25:20.362Z,100849.50
2023-01-02T13:27:48.779Z,100845.19
2023-01-02T13:30:33.477Z,100852.34
2023-01-02T13:33:02.687Z,100852.53
2023-01-02T13:35:35.097Z,100849.72
2023-01-02T13:38:05.922Z,100844.84
2023-01-02T13:40:33.693Z,100843.78
2023-01-02T13:43:08.295Z,100848.38
2023-01-02T13:45:55.152Z,100856.22
2023-01-02T13:48:46.090Z,100856.63
2023-01-02T13:51:16.606Z,100858.00
2023-01-02T13:53:46.209Z,100854.47
2023-01-02T13:56:21.832Z,100847.56
2023-01-02T13:58:57.602Z,100852.84
2023-01-02T14:01:24.620Z,100846.56
2023-01-02T14:04:09.643Z,100854.66
2023-01-02T14:06:48.581Z,100856.28
2023-01-02T14:09:23.647Z,100852.47
2023-01-02T14:11:57.039Z,100857.44
2023-01-02T14:14:37.082Z,100873.41
2023-01-02T14:17:22.409Z,100877.63
2023-01-02T14:20:15.370Z,100883.53
2023-01-02T14:22:47.980Z,100877.88
2023-01-02T14:25:15.945Z,100873.78
2023-01-02T14:27:59.339Z,100882.06
2023-01-02T14:30:41.041Z,100878.81
2023-01-02T14:33:10.128Z,100885.00
2023-01-02T14:35:48.970Z,100892.88
2023-01-02T14:38:22.725Z,100888.84
2023-01-02T14:40:50.301Z,100888.25
2023-01-02T14:43:30.692Z,100881.16
2023-01-02T14:46:18.882Z,100891.84
2023-01-02T14:49:24.803Z,100890.56
2023-01-02T14:52:02.384Z,100887.56
2023-01-02T14:54:47.959Z,100888.63
2023-01-02T14:57:34.697Z,100886.78
2023-01-02T15:00:11.729Z,100884.84
2023-01-02T15:02:47.601Z,100890.31
2023-01-02T15:05:26.564Z,100897.03
2023-01-02T15:07:58.870Z,100895.50
2023-01-02T15:10:26.339Z,100898.50
2023-01-02T15:13:07.053Z,100905.03
2023-01-02T15:15:42.738Z,100908.50
2023-01-02T15:18:20.473Z,100916.34
2023-01-02T15:20:53.112Z,100923.88
2023-01-02T15:23:27.272Z,100927.91
2023-01-02T15:26:33.218Z,100939.84
2023-01-02T15:28:41.727Z,100939.75
2023-01-02T15:31:14.266Z,100946.81
2023-01-02T15:33:41.550Z,100958.50
2023-01-02T15:36:13.439Z,100963.34
2023-01-02T15:38:41.056Z,100965.13
2023-01-02T15:41:15.482Z,100956.47
2023-01-02T15:44:00.830Z,100958.59
2023-01-02T15:46:28.108Z,100977.22
2023-01-02T15:48:55.485Z,100978.78
2023-01-02T15:51:40.404Z,100999.38
2023-01-02T15:54:15.561Z,100994.06
2023-01-02T15:56:42.800Z,101001.63
2023-01-02T15:59:30.484Z,101035.16
2023-01-02T16:01:57.312Z,101052.69
2023-01-02T16:04:33.134Z,101067.13
2023-01-02T16:07:20.925Z,101071.84
2023-01-02T16:09:54.261Z,101082.41
2023-01-02T16:12:22.829Z,101088.09
2023-01-02T16:14:55.470Z,101073.31
2023-01-02T16:17:36.763Z,101078.41
2023-01-02T16:20:17.847Z,101086.31
2023-01-02T16:22:53.230Z,101076.19
2023-01-02T16:25:24.098Z,101082.59
2023-01-02T16:28:35.128Z,101075.22
2023-01-02T16:31:14.291Z,101047.31
2023-01-02T16:33:42.180Z,101039.63
2023-01-02T16:36:29.626Z,101074.69
2023-01-02T16:38:59.467Z,101091.09
2023-01-02T16:41:38.092Z,101084.06
2023-01-02T16:44:12.857Z,101084.69
2023-01-02T16:46:44.210Z,101086.38
2023-01-02T16:49:16.542Z,101077.09
2023-01-02T16:51:45.196Z,101083.06
2023-01-02T16:54:13.550Z,101089.63
2023-01-02T16:56:40.451Z,101092.22
2023-01-02T16:59:07.519Z,101100.31
2023-01-02T17:01:34.404Z,101116.97
2023-01-02T17:04:01.299Z,101136.00
2023-01-02T17:06:28.043Z,101128.50
2023-01-02T17:08:54.840Z,101129.44
2023-01-02T17:11:24.532Z,101131.09
2023-01-02T17:13:52.154Z,101153.00
2023-01-02T17:16:19.991Z,101158.03
2023-01-02T17:18:46.863Z,101162.59
2023-01-02T17:21:13.596Z,101170.22
2023-01-02T17:23:40.283Z,101190.00
2023-01-02T17:26:06.932Z,101191.50
2023-01-02T17:28:33.647Z,101215.59
2023-01-02T17:31:00.471Z,101217.47
2023-01-02T17:33:27.286Z,101226.31
2023-01-02T17:35:53.889Z,101226.16
2023-01-02T17:38:20.581Z,101243.97
2023-01-02T17:40:47.574Z,101251.84
2023-01-02T17:43:14.410Z,101242.59
2023-01-02T17:45:42.778Z,101252.56
2023-01-02T17:48:12.664Z,101252.47
2023-01-02T17:50:40.933Z,101269.75
2023-01-02T17:53:08.541Z,101264.59
2023-01-02T17:55:35.529Z,101266.97
2023-01-02T17:58:03.557Z,101260.00
2023-01-02T18:00:30.300Z,101260.81
2023-01-02T18:02:57.025Z,101265.44
2023-01-02T18:05:24.378Z,101257.75
2023-01-02T18:07:51.073Z,101272.44
2023-01-02T18:10:20.546Z,101284.16
2023-01-02T18:12:49.296Z,101295.38
2023-01-02T18:15:18.108Z,101301.38
2023-01-02T18:17:45.016Z,101294.00
2023-01-02T18:20:17.366Z,101305.13
2023-01-02T18:22:49.620Z,101309.81
2023-01-02T18:25:24.514Z,101315.66
2023-01-02T18:28:00.182Z,101325.22
2023-01-02T18:30:27.723Z,101327.09
2023-01-02T18:33:11.028Z,101325.69
2023-01-02T18:38:32.563Z,101331.19
2023-01-02T18:40:59.431Z,101330.56
2023-01-02T18:43:35.498Z,101341.84
2023-01-02T18:46:13.720Z,101333.63
2023-01-02T18:48:41.006Z,101335.75
2023-01-02T18:51:21.183Z,101332.81
2023-01-02T18:53:56.922Z,101328.84
2023-01-02T18:56:27.292Z,101333.88
2023-01-02T18:59:18.926Z,101339.84
2023-01-02T19:01:50.946Z,101342.78
2023-01-02T19:04:28.183Z,101343.66
2023-01-02T19:07:00.102Z,101345.31
2023-01-02T19:09:35.454Z,101342.25
2023-01-02T19:12:41.816Z,101350.31
2023-01-02T19:15:39.850Z,101354.06
2023-01-02T19:18:19.711Z,101361.31
2023-01-02T19:21:02.215Z,101360.84
2023-01-02T19:23:32.459Z,101381.28
2023-01-02T19:26:21.301Z,101381.09
2023-01-02T19:28:54.065Z,101388.53
2023-01-02T19:31:21.760Z,101397.84
2023-01-02T19:33:52.791Z,101403.56
2023-01-02T19:36:24.966Z,101413.88
2023-01-02T19:38:52.196Z,101407.81
2023-01-02T19:41:39.088Z,101409.03
2023-01-02T19:44:05.883Z,101414.81
2023-01-02T19:46:32.605Z,101400.22
2023-01-02T19:48:59.395Z,101415.63
2023-01-02T19:51:32.209Z,101422.09
2023-01-02T19:54:03.968Z,101423.31
2023-01-02T19:56:31.861Z,101429.56
2023-01-02T19:58:58.475Z,101432.03
2023-01-02T20:01:25.303Z,101436.72
2023-01-02T20:03:52.104Z,101429.91
2023-01-02T20:06:18.905Z,101440.59
2023-01-02T20:08:47.212Z,101426.22
2023-01-02T20:11:33.912Z,101433.22
2023-01-02T20:14:00.527Z,101434.47
2023-01-02T20:16:27.263Z,101441.38
2023-01-02T20:18:54.044Z,101430.84
2023-01-02T20:21:22.033Z,101428.28
2023-01-02T20:23:56.020Z,101442.44
2023-01-02T20:26:23.249Z,101451.78
2023-01-02T20:28:49.909Z,101448.50
2023-01-02T20:31:17.310Z,101456.56
2023-01-02T20:33:43.955Z,101452.44
2023-01-02T20:36:13.981Z,101456.69
2023-01-02T20:38:40.784Z,101457.94
2023-01-02T20:41:07.542Z,101465.81
2023-01-02T20:43:34.254Z,101476.59
2023-01-02T20:46:01.079Z,101481.16
2023-01-02T20:48:27.940Z,101485.41
2023-01-02T20:50:55.189Z,101499.69
2023-01-02T20:53:21.981Z,101492.59
2023-01-02T20:55:50.845Z,101497.00
2023-01-02T20:58:17.569Z,101489.59
2023-01-02T21:00:44.989Z,101491.47
2023-01-02T21:03:11.928Z,101504.41
2023-01-02T21:05:42.083Z,101501.28
2023-01-02T21:08:10.697Z,101515.47
2023-01-02T21:10:37.508Z,101516.13
2023-01-02T21:13:07.501Z,101518.69
2023-01-02T21:15:53.581Z,101525.84
2023-01-02T21:18:40.000Z,101527.91
2023-01-02T21:21:15.334Z,101532.31
2023-01-02T21:23:42.119Z,101537.53
2023-01-02T21:26:14.330Z,101552.38
2023-01-02T21:28:43.993Z,101552.63
2023-01-02T21:31:11.786Z,101550.56
2023-01-02T21:33:38.741Z,101556.97
2023-01-02T21:36:08.612Z,101551.84
2023-01-02T21:38:36.190Z,101553.72
2023-01-02T21:41:21.297Z,101550.63
2023-01-02T21:43:48.824Z,101555.84
2023-01-02T21:46:16.311Z,101561.47
2023-01-02T21:48:43.143Z,101551.53
2023-01-02T21:51:09.893Z,101555.84
2023-01-02T21:53:36.543Z,101559.19
2023-01-02T21:56:03.541Z,101557.38
2023-01-02T21:58:30.455Z,101557.09
2023-01-02T22:00:57.288Z,101560.44
2023-01-02T22:03:24.163Z,101567.47
2023-01-02T22:05:50.934Z,101564.78
2023-01-02T22:08:17.651Z,101574.16
2023-01-02T22:10:44.231Z,101569.78
2023-01-02T22:13:10.925Z,101573.72
2023-01-02T22:15:37.572Z,101572.47
2023-01-02T22:18:04.460Z,101567.94
2023-01-02T22:20:32.296Z,101577.31
2023-01-02T22:22:59.047Z,101581.25
2023-01-02T22:25:25.785Z,101585.00
2023-01-02T22:27:52.512Z,101587.28
2023-01-02T22:30:24.353Z,101583.56
2023-01-02T22:32:54.724Z,101585.59
2023-01-02T22:35:21.670Z,101595.53
2023-01-02T22:37:48.474Z,101603.16
2023-01-02T22:40:15.224Z,101606.84
2023-01-02T22:43:02.097Z,101601.47
2023-01-02T22:45:35.463Z,101603.38
2023-01-02T22:48:05.914Z,101599.66
2023-01-02T22:50:41.530Z,101607.72
2023-01-02T22:53:31.919Z,101620.97
2023-01-02T22:56:00.649Z,101622.22
2023-01-02T22:58:27.702Z,101626.16
2023-01-02T23:01:10.222Z,101628.28
2023-01-02T23:03:41.982Z,101625.16
2023-01-02T23:06:08.916Z,101632.59
2023-01-02T23:08:36.254Z,101631.97
2023-01-02T23:11:04.093Z,101632.75
2023-01-02T23:13:33.109Z,101636.91
2023-01-02T23:16:18.550Z,101626.97
2023-01-02T23:19:04.148Z,101620.78
2023-01-02T23:21:32.735Z,101616.47
2023-01-02T23:23:59.605Z,101619.72
2023-01-02T23:26:34.544Z,101625.13
2023-01-02T23:29:09.136Z,101629.44
2023-01-02T23:31:39.034Z,101628.66
2023-01-02T23:34:06.576Z,101621.75
2023-01-02T23:36:34.100Z,101611.22
2023-01-02T23:39:00.800Z,101613.03
2023-01-02T23:41:27.605Z,101618.09
2023-01-02T23:43:54.353Z,101616.09
2023-01-02T23:46:21.038Z,101610.59
2023-01-02T23:48:48.395Z,101624.78
2023-01-02T23:51:15.254Z,101623.53
2023-01-02T23:53:41.889Z,101621.94
2023-01-02T23:56:23.003Z,101626.91
2023-01-02T23:58:54.298Z,101629.00
